createdAt,value
2022-10-30T00:00:50.798Z,95.51
2022-10-30T00:01:42.453Z,95.31
2022-10-30T00:02:42.797Z,95.21
2022-10-30T00:03:43.932Z,94.86
2022-10-30T00:04:45.094Z,94.81
2022-10-30T00:05:43.600Z,95.31
2022-10-30T00:06:45.793Z,95.21
2022-10-30T00:07:44.177Z,95.42
2022-10-30T00:08:44.500Z,95.62
2022-10-30T00:09:44.807Z,95.72
2022-10-30T00:10:46.989Z,95.92
2022-10-30T00:11:47.179Z,95.92
2022-10-30T00:12:45.689Z,95.51
2022-10-30T00:13:45.997Z,95.82
2022-10-30T00:14:46.308Z,95.92
2022-10-30T00:15:48.650Z,95.82
2022-10-30T00:16:48.796Z,95.92
2022-10-30T00:17:47.202Z,96.07
2022-10-30T00:18:47.503Z,95.97
2022-10-30T00:19:49.819Z,96.17
2022-10-30T00:20:49.955Z,96.33
2022-10-30T00:21:50.110Z,95.72
2022-10-30T00:22:50.282Z,96.02
2022-10-30T00:23:50.482Z,95.66
2022-10-30T00:24:51.147Z,96.12
2022-10-30T00:25:51.328Z,95.62
2022-10-30T00:26:51.482Z,95.31
2022-10-30T00:27:51.748Z,95.11
2022-10-30T00:28:50.360Z,96.07
2022-10-30T00:29:52.563Z,96.27
2022-10-30T00:30:52.789Z,96.33
2022-10-30T00:31:52.916Z,95.82
2022-10-30T00:32:53.097Z,95.46
2022-10-30T00:33:53.377Z,96.27
2022-10-30T00:34:51.988Z,96.92
2022-10-30T00:35:54.190Z,97.02
2022-10-30T00:36:52.560Z,96.98
2022-10-30T00:37:54.998Z,96.67
2022-10-30T00:38:53.104Z,96.57
2022-10-30T00:39:53.417Z,96.47
2022-10-30T00:40:55.602Z,96.02
2022-10-30T00:41:53.984Z,95.76
2022-10-30T00:42:56.170Z,96.17
2022-10-30T00:43:54.562Z,96.47
2022-10-30T00:44:56.735Z,96.88
2022-10-30T00:45:56.915Z,96.47
2022-10-30T00:46:55.425Z,96.67
2022-10-30T00:47:57.840Z,96.88
2022-10-30T00:48:56.063Z,96.78
2022-10-30T00:49:56.369Z,96.57
2022-10-30T00:50:58.520Z,96.78
2022-10-30T00:51:56.908Z,96.67
2022-10-30T00:52:57.381Z,96.67
2022-10-30T00:53:59.451Z,96.57
2022-10-30T00:54:59.609Z,96.67
2022-10-30T00:55:58.113Z,96.37
2022-10-30T00:57:00.281Z,96.47
2022-10-30T00:57:58.672Z,96.27
2022-10-30T00:59:00.839Z,96.17
2022-10-30T00:59:59.242Z,96.47
2022-10-30T01:01:01.444Z,96.37
2022-10-30T01:01:59.895Z,96.37
2022-10-30T01:03:02.163Z,96.27
2022-10-30T01:04:02.159Z,96.37
2022-10-30T01:05:00.688Z,96.37
2022-10-30T01:06:01.050Z,96.47
2022-10-30T01:07:01.235Z,96.51
2022-10-30T01:08:01.964Z,96.47
2022-10-30T01:09:03.789Z,96.72
2022-10-30T01:10:02.183Z,96.37
2022-10-30T01:11:02.476Z,96.07
2022-10-30T01:12:02.787Z,96.42
2022-10-30T01:13:04.970Z,96.67
2022-10-30T01:14:03.362Z,96.47
2022-10-30T01:15:03.671Z,96.37
2022-10-30T01:16:05.828Z,95.76
2022-10-30T01:17:04.208Z,95.76
2022-10-30T01:18:06.388Z,95.76
2022-10-30T01:19:04.784Z,95.97
2022-10-30T01:20:06.959Z,95.76
2022-10-30T01:21:05.335Z,95.15
2022-10-30T01:22:05.648Z,95.36
2022-10-30T01:23:07.837Z,95.46
2022-10-30T01:24:06.228Z,96.11
2022-10-30T01:25:06.539Z,95.71
2022-10-30T01:26:06.802Z,96.42
2022-10-30T01:27:08.978Z,96.11
2022-10-30T01:28:09.161Z,96.22
2022-10-30T01:29:07.658Z,96.51
2022-10-30T01:30:10.799Z,96.82
2022-10-30T01:31:10.980Z,96.51
2022-10-30T01:32:10.213Z,96.62
2022-10-30T01:33:08.978Z,96.51
2022-10-30T01:34:09.290Z,96.62
2022-10-30T01:35:09.601Z,96.11
2022-10-30T01:36:10.008Z,96.62
2022-10-30T01:37:12.078Z,95.76
2022-10-30T01:38:10.461Z,95.76
2022-10-30T01:39:12.638Z,95.46
2022-10-30T01:40:12.829Z,94.95
2022-10-30T01:41:11.346Z,94.85
2022-10-30T01:42:11.651Z,94.45
2022-10-30T01:43:13.831Z,95.10
2022-10-30T01:44:12.211Z,96.22
2022-10-30T01:45:14.366Z,95.46
2022-10-30T01:46:12.760Z,95.06
2022-10-30T01:47:14.948Z,94.85
2022-10-30T01:48:14.283Z,94.19
2022-10-30T01:49:14.464Z,95.61
2022-10-30T01:50:14.849Z,95.00
2022-10-30T01:51:17.645Z,94.90
2022-10-30T01:52:15.431Z,95.50
2022-10-30T01:53:15.639Z,95.91
2022-10-30T01:54:15.981Z,95.61
2022-10-30T01:55:16.166Z,96.11
2022-10-30T01:56:17.599Z,96.11
2022-10-30T01:57:16.935Z,95.76
2022-10-30T01:58:17.156Z,95.26
2022-10-30T01:59:16.640Z,94.95
2022-10-30T02:00:16.965Z,95.56
2022-10-30T02:01:20.146Z,95.10
2022-10-30T02:02:19.354Z,95.81
2022-10-30T02:03:18.436Z,95.15
2022-10-30T02:04:18.054Z,94.79
2022-10-30T02:05:18.366Z,95.10
2022-10-30T02:06:20.555Z,95.91
2022-10-30T02:07:20.732Z,96.42
2022-10-30T02:08:20.948Z,96.07
2022-10-30T02:09:21.120Z,95.71
2022-10-30T02:10:19.874Z,95.20
2022-10-30T02:11:20.202Z,95.00
2022-10-30T02:12:20.468Z,95.61
2022-10-30T02:13:22.665Z,95.50
2022-10-30T02:14:22.838Z,95.61
2022-10-30T02:15:21.348Z,95.20
2022-10-30T02:16:22.528Z,95.30
2022-10-30T02:17:21.904Z,95.71
2022-10-30T02:18:24.081Z,95.04
2022-10-30T02:19:22.457Z,95.71
2022-10-30T02:20:24.659Z,95.00
2022-10-30T02:21:24.804Z,95.45
2022-10-30T02:22:25.076Z,95.65
2022-10-30T02:23:25.155Z,96.36
2022-10-30T02:24:25.844Z,95.75
2022-10-30T02:25:24.224Z,96.91
2022-10-30T02:26:26.406Z,96.46
2022-10-30T02:27:26.557Z,96.26
2022-10-30T02:28:26.733Z,96.15
2022-10-30T02:29:26.923Z,96.15
2022-10-30T02:30:27.634Z,96.30
2022-10-30T02:31:27.821Z,97.26
2022-10-30T02:32:27.988Z,97.32
2022-10-30T02:33:26.622Z,97.11
2022-10-30T02:34:28.865Z,97.32
2022-10-30T02:35:27.246Z,96.91
2022-10-30T02:36:27.581Z,97.06
2022-10-30T02:37:27.889Z,97.36
2022-10-30T02:38:28.194Z,98.07
2022-10-30T02:39:30.373Z,97.36
2022-10-30T02:40:28.768Z,97.22
2022-10-30T02:41:29.071Z,96.75
2022-10-30T02:42:29.381Z,97.26
2022-10-30T02:43:31.548Z,97.67
2022-10-30T02:44:29.940Z,97.36
2022-10-30T02:45:30.255Z,97.77
2022-10-30T02:46:30.553Z,97.97
2022-10-30T02:47:32.720Z,97.36
2022-10-30T02:48:31.895Z,97.47
2022-10-30T02:49:31.405Z,97.97
2022-10-30T02:50:31.710Z,97.87
2022-10-30T02:51:32.006Z,98.07
2022-10-30T02:52:34.189Z,97.77
2022-10-30T02:53:34.372Z,97.97
2022-10-30T02:54:32.872Z,97.67
2022-10-30T02:55:33.155Z,98.07
2022-10-30T02:56:33.469Z,98.07
2022-10-30T02:57:33.762Z,98.22
2022-10-30T02:58:35.943Z,98.18
2022-10-30T02:59:34.322Z,98.18
2022-10-30T03:00:34.624Z,98.18
2022-10-30T03:01:36.824Z,97.67
2022-10-30T03:02:36.943Z,98.18
2022-10-30T03:03:37.112Z,98.07
2022-10-30T03:04:35.747Z,97.56
2022-10-30T03:05:36.049Z,97.32
2022-10-30T03:06:36.357Z,97.42
2022-10-30T03:07:36.656Z,96.61
2022-10-30T03:08:38.833Z,96.61
2022-10-30T03:09:37.209Z,96.30
2022-10-30T03:10:37.521Z,96.66
2022-10-30T03:11:37.825Z,97.06
2022-10-30T03:12:38.138Z,96.61
2022-10-30T03:13:40.292Z,96.91
2022-10-30T03:14:38.678Z,96.30
2022-10-30T03:15:39.086Z,96.45
2022-10-30T03:16:39.215Z,96.86
2022-10-30T03:18:39.767Z,97.26
2022-10-30T03:19:41.984Z,97.67
2022-10-30T03:20:40.339Z,97.36
2022-10-30T03:21:40.657Z,97.26
2022-10-30T03:22:40.975Z,97.61
2022-10-30T03:23:41.263Z,97.81
2022-10-30T03:24:44.389Z,98.22
2022-10-30T03:25:41.806Z,97.92
2022-10-30T03:26:42.117Z,98.52
2022-10-30T03:27:42.423Z,98.22
2022-10-30T03:28:44.577Z,98.43
2022-10-30T03:29:44.760Z,98.22
2022-10-30T03:30:43.264Z,98.83
2022-10-30T03:31:45.435Z,98.93
2022-10-30T03:32:43.817Z,98.93
2022-10-30T03:33:44.120Z,98.93
2022-10-30T03:34:46.302Z,98.52
2022-10-30T03:35:44.690Z,98.43
2022-10-30T03:36:46.876Z,98.32
2022-10-30T03:37:47.049Z,98.43
2022-10-30T03:38:47.238Z,98.52
2022-10-30T03:39:46.880Z,97.77
2022-10-30T03:40:47.042Z,97.97
2022-10-30T03:41:48.300Z,97.87
2022-10-30T03:42:47.624Z,97.87
2022-10-30T03:43:47.776Z,97.77
2022-10-30T03:44:49.308Z,97.87
2022-10-30T03:45:48.534Z,97.52
2022-10-30T03:46:49.751Z,96.86
2022-10-30T03:47:48.139Z,97.26
2022-10-30T03:48:49.345Z,97.77
2022-10-30T03:49:49.515Z,97.26
2022-10-30T03:50:49.932Z,97.16
2022-10-30T03:51:51.173Z,97.36
2022-10-30T03:52:49.556Z,97.56
2022-10-30T03:53:49.859Z,96.96
2022-10-30T03:54:50.173Z,97.06
2022-10-30T03:55:50.477Z,97.47
2022-10-30T03:56:52.658Z,97.06
2022-10-30T03:57:51.045Z,97.06
2022-10-30T03:58:51.384Z,97.06
2022-10-30T03:59:51.695Z,96.96
2022-10-30T04:00:53.859Z,97.16
2022-10-30T04:01:54.252Z,96.86
2022-10-30T04:02:54.198Z,97.06
2022-10-30T04:03:54.379Z,97.11
2022-10-30T04:04:55.071Z,97.61
2022-10-30T04:05:55.280Z,97.47
2022-10-30T04:06:55.482Z,97.47
2022-10-30T04:07:55.657Z,97.06
2022-10-30T04:08:56.334Z,96.75
2022-10-30T04:09:54.716Z,96.90
2022-10-30T04:10:56.935Z,97.06
2022-10-30T04:11:57.089Z,97.20
2022-10-30T04:12:57.499Z,97.41
2022-10-30T04:13:57.455Z,97.56
2022-10-30T04:14:58.141Z,97.36
2022-10-30T04:15:58.256Z,96.55
2022-10-30T04:16:58.726Z,97.11
2022-10-30T04:17:59.149Z,97.41
2022-10-30T04:18:59.082Z,97.71
2022-10-30T04:19:59.256Z,97.41
2022-10-30T04:20:58.033Z,97.26
2022-10-30T04:21:58.236Z,97.06
2022-10-30T04:23:00.437Z,97.26
2022-10-30T04:24:00.621Z,97.31
2022-10-30T04:25:00.796Z,97.51
2022-10-30T04:26:00.961Z,97.71
2022-10-30T04:27:01.655Z,97.51
2022-10-30T04:28:01.902Z,97.71
2022-10-30T04:29:00.375Z,97.51
2022-10-30T04:30:02.580Z,97.71
2022-10-30T04:31:02.753Z,97.51
2022-10-30T04:32:02.959Z,97.67
2022-10-30T04:33:02.020Z,97.26
2022-10-30T04:34:03.773Z,96.96
2022-10-30T04:35:02.169Z,96.96
2022-10-30T04:36:05.358Z,97.16
2022-10-30T04:37:04.545Z,96.75
2022-10-30T04:38:03.053Z,97.06
2022-10-30T04:39:05.227Z,97.16
2022-10-30T04:40:03.618Z,96.96
2022-10-30T04:41:05.790Z,96.66
2022-10-30T04:42:05.984Z,97.00
2022-10-30T04:43:04.470Z,97.31
2022-10-30T04:44:06.665Z,97.20
2022-10-30T04:45:11.144Z,97.06
2022-10-30T04:46:08.023Z,97.20
2022-10-30T04:47:05.675Z,97.11
2022-10-30T04:48:07.858Z,96.90
2022-10-30T04:49:08.029Z,97.00
2022-10-30T04:50:06.543Z,97.11
2022-10-30T04:51:06.860Z,97.41
2022-10-30T04:52:09.038Z,97.20
2022-10-30T04:53:07.420Z,97.41
2022-10-30T04:54:09.601Z,97.51
2022-10-30T04:55:09.782Z,97.11
2022-10-30T04:56:08.961Z,97.11
2022-10-30T04:57:08.576Z,97.31
2022-10-30T04:58:08.898Z,97.41
2022-10-30T04:59:11.073Z,97.20
2022-10-30T05:00:11.237Z,97.11
2022-10-30T05:01:11.490Z,96.90
2022-10-30T05:02:10.103Z,96.90
2022-10-30T05:03:10.190Z,96.80
2022-10-30T05:04:12.368Z,97.00
2022-10-30T05:05:10.773Z,97.11
2022-10-30T05:06:12.963Z,97.20
2022-10-30T05:07:11.348Z,96.70
2022-10-30T05:08:11.657Z,96.80
2022-10-30T05:09:13.834Z,96.80
2022-10-30T05:10:12.215Z,96.25
2022-10-30T05:11:14.423Z,96.09
2022-10-30T05:12:14.617Z,96.70
2022-10-30T05:13:14.815Z,96.70
2022-10-30T05:14:14.993Z,96.50
2022-10-30T05:15:13.741Z,96.80
2022-10-30T05:16:15.935Z,96.39
2022-10-30T05:17:16.118Z,96.09
2022-10-30T05:18:14.591Z,96.60
2022-10-30T05:19:17.729Z,95.99
2022-10-30T05:20:18.794Z,96.39
2022-10-30T05:21:18.819Z,96.30
2022-10-30T05:22:17.565Z,96.09
2022-10-30T05:23:15.952Z,95.68
2022-10-30T05:24:18.143Z,96.30
2022-10-30T05:25:16.533Z,95.99
2022-10-30T05:26:16.867Z,95.99
2022-10-30T05:27:17.165Z,96.39
2022-10-30T05:28:19.339Z,95.68
2022-10-30T05:29:17.715Z,95.28
2022-10-30T05:30:19.926Z,96.34
2022-10-30T05:31:21.064Z,97.05
2022-10-30T05:32:21.256Z,96.54
2022-10-30T05:33:20.470Z,96.90
2022-10-30T05:34:20.186Z,95.79
2022-10-30T05:35:21.408Z,95.89
2022-10-30T05:36:21.572Z,95.79
2022-10-30T05:37:20.962Z,96.60
2022-10-30T05:38:22.302Z,96.09
2022-10-30T05:39:21.515Z,96.09
2022-10-30T05:40:21.701Z,95.43
2022-10-30T05:41:21.159Z,95.43
2022-10-30T05:42:21.473Z,95.18
2022-10-30T05:43:23.660Z,95.89
2022-10-30T05:44:40.549Z,95.68
2022-10-30T05:45:23.367Z,95.48
2022-10-30T05:46:24.544Z,95.89
2022-10-30T05:47:22.951Z,95.79
2022-10-30T05:48:23.260Z,96.70
2022-10-30T05:49:23.561Z,96.09
2022-10-30T05:50:23.874Z,96.39
2022-10-30T05:51:26.039Z,95.79
2022-10-30T05:52:24.420Z,95.79
2022-10-30T05:53:24.721Z,96.19
2022-10-30T05:54:25.022Z,96.09
2022-10-30T05:55:27.216Z,95.89
2022-10-30T05:56:25.615Z,95.68
2022-10-30T05:57:25.932Z,96.09
2022-10-30T05:58:28.093Z,95.89
2022-10-30T05:59:26.482Z,95.68
2022-10-30T06:00:28.667Z,95.68
2022-10-30T06:01:28.927Z,95.38
2022-10-30T06:02:27.386Z,95.34
2022-10-30T06:03:27.582Z,95.03
2022-10-30T06:04:29.767Z,95.03
2022-10-30T06:05:29.936Z,94.53
2022-10-30T06:06:30.849Z,94.93
2022-10-30T06:07:30.526Z,94.83
2022-10-30T06:08:30.724Z,95.18
2022-10-30T06:09:29.366Z,95.28
2022-10-30T06:10:29.715Z,95.34
2022-10-30T06:11:31.884Z,95.23
2022-10-30T06:12:32.167Z,94.77
2022-10-30T06:13:32.258Z,95.18
2022-10-30T06:14:32.464Z,95.48
2022-10-30T06:15:32.605Z,95.34
2022-10-30T06:17:33.483Z,95.38
2022-10-30T06:18:31.767Z,95.28
2022-10-30T06:19:32.136Z,94.98
2022-10-30T06:20:32.420Z,95.13
2022-10-30T06:21:34.550Z,94.57
2022-10-30T06:22:32.989Z,94.77
2022-10-30T06:23:33.197Z,94.12
2022-10-30T06:24:33.540Z,94.26
2022-10-30T06:25:39.339Z,94.57
2022-10-30T06:26:37.059Z,94.46
2022-10-30T06:27:34.480Z,94.37
2022-10-30T06:28:34.823Z,94.77
2022-10-30T06:29:36.999Z,95.02
2022-10-30T06:30:35.448Z,95.22
2022-10-30T06:31:35.658Z,95.12
2022-10-30T06:32:36.003Z,95.02
2022-10-30T06:33:36.339Z,95.12
2022-10-30T06:34:36.571Z,95.57
2022-10-30T06:35:39.700Z,95.57
2022-10-30T06:36:37.319Z,95.98
2022-10-30T06:37:38.497Z,96.08
2022-10-30T06:38:37.777Z,95.63
2022-10-30T06:39:37.998Z,95.63
2022-10-30T06:40:38.250Z,95.73
2022-10-30T06:41:40.425Z,95.53
2022-10-30T06:42:38.733Z,95.32
2022-10-30T06:43:38.946Z,95.22
2022-10-30T06:44:39.177Z,95.63
2022-10-30T06:45:39.519Z,94.98
2022-10-30T06:46:41.703Z,94.92
2022-10-30T06:47:40.124Z,95.02
2022-10-30T06:48:40.467Z,94.87
2022-10-30T06:49:42.628Z,94.37
2022-10-30T06:50:41.058Z,93.76
2022-10-30T06:51:43.243Z,93.86
2022-10-30T06:52:42.433Z,94.37
2022-10-30T06:53:42.784Z,94.41
2022-10-30T06:54:44.030Z,94.37
2022-10-30T06:55:42.310Z,94.51
2022-10-30T06:56:44.497Z,94.71
2022-10-30T06:57:42.909Z,94.57
2022-10-30T06:58:45.091Z,94.67
2022-10-30T06:59:43.511Z,94.46
2022-10-30T07:00:45.760Z,94.06
2022-10-30T07:01:45.929Z,93.76
2022-10-30T07:02:44.234Z,93.96
2022-10-30T07:03:44.564Z,94.42
2022-10-30T07:04:44.903Z,94.12
2022-10-30T07:05:45.168Z,93.91
2022-10-30T07:06:47.349Z,93.91
2022-10-30T07:07:45.620Z,94.22
2022-10-30T07:08:45.995Z,94.57
2022-10-30T07:09:46.230Z,95.38
2022-10-30T07:10:47.360Z,95.38
2022-10-30T07:11:48.173Z,95.03
2022-10-30T07:12:48.865Z,95.43
2022-10-30T07:13:47.414Z,94.83
2022-10-30T07:14:47.646Z,95.19
2022-10-30T07:15:47.880Z,94.98
2022-10-30T07:16:50.058Z,94.74
2022-10-30T07:17:50.227Z,93.93
2022-10-30T07:18:50.409Z,94.43
2022-10-30T07:19:50.066Z,93.62
2022-10-30T07:20:51.318Z,94.09
2022-10-30T07:21:51.444Z,93.18
2022-10-30T07:22:51.631Z,92.93
2022-10-30T07:23:50.169Z,92.52
2022-10-30T07:24:50.400Z,92.02
2022-10-30T07:25:50.626Z,92.52
2022-10-30T07:26:50.872Z,91.82
2022-10-30T07:27:53.039Z,92.12
2022-10-30T07:28:51.337Z,92.08
2022-10-30T07:29:51.565Z,91.57
2022-10-30T07:30:51.796Z,91.57
2022-10-30T07:32:02.107Z,91.27
2022-10-30T07:32:55.452Z,91.27
2022-10-30T07:33:52.540Z,91.67
2022-10-30T07:34:54.730Z,91.97
2022-10-30T07:35:53.137Z,91.57
2022-10-30T07:36:53.361Z,91.73
2022-10-30T07:37:55.544Z,90.98
2022-10-30T07:38:53.845Z,90.58
2022-10-30T07:39:56.001Z,90.98
2022-10-30T07:40:55.264Z,90.52
2022-10-30T07:41:56.444Z,90.78
2022-10-30T07:42:56.978Z,91.12
2022-10-30T07:43:56.810Z,91.02
2022-10-30T07:44:57.068Z,91.18
2022-10-30T07:45:56.693Z,90.78
2022-10-30T07:46:55.975Z,90.88
2022-10-30T07:47:56.864Z,91.02
2022-10-30T07:48:58.501Z,90.82
2022-10-30T07:49:58.682Z,91.63
2022-10-30T07:50:57.232Z,91.32
2022-10-30T07:51:58.873Z,92.13
2022-10-30T07:52:57.789Z,91.87
2022-10-30T07:53:58.014Z,93.29
2022-10-30T07:55:00.194Z,92.03
2022-10-30T07:55:58.634Z,91.42
2022-10-30T07:57:00.815Z,92.48
2022-10-30T07:58:01.418Z,92.88
2022-10-30T07:58:59.453Z,91.32
2022-10-30T08:00:02.884Z,91.73
2022-10-30T08:01:01.952Z,91.22
2022-10-30T08:02:02.256Z,91.32
2022-10-30T08:03:00.794Z,91.49
2022-10-30T08:04:02.655Z,90.33
2022-10-30T08:05:02.845Z,89.92
2022-10-30T08:06:03.032Z,90.47
2022-10-30T08:07:03.197Z,89.83
2022-10-30T08:08:02.295Z,90.08
2022-10-30T08:09:02.267Z,88.97
2022-10-30T08:10:04.448Z,89.07
2022-10-30T08:11:02.851Z,88.32
2022-10-30T08:12:04.937Z,88.08
2022-10-30T08:13:05.126Z,87.58
2022-10-30T08:14:05.324Z,87.13
2022-10-30T08:15:05.998Z,87.48
2022-10-30T08:16:06.178Z,87.03
2022-10-30T08:17:06.340Z,86.79
2022-10-30T08:18:06.498Z,85.58
2022-10-30T08:19:07.200Z,85.78
2022-10-30T08:20:07.391Z,85.92
2022-10-30T08:21:06.566Z,86.63
2022-10-30T08:22:08.693Z,86.79
2022-10-30T08:23:07.940Z,86.38
2022-10-30T08:24:08.595Z,86.58
2022-10-30T08:25:08.742Z,86.29
2022-10-30T08:26:08.933Z,85.98
2022-10-30T08:27:09.215Z,84.94
2022-10-30T08:28:09.331Z,85.94
2022-10-30T08:29:10.036Z,86.24
2022-10-30T08:30:10.212Z,85.74
2022-10-30T08:31:09.635Z,86.04
2022-10-30T08:32:13.122Z,86.75
2022-10-30T08:33:11.030Z,86.00
2022-10-30T08:34:09.452Z,85.70
2022-10-30T08:35:13.461Z,85.00
2022-10-30T08:36:09.923Z,86.38
2022-10-30T08:37:12.118Z,87.15
2022-10-30T08:38:10.416Z,87.29
2022-10-30T08:39:14.044Z,87.29
2022-10-30T08:40:11.007Z,87.15
2022-10-30T08:41:11.253Z,87.09
2022-10-30T08:42:13.434Z,88.20
2022-10-30T08:43:11.735Z,87.74
2022-10-30T08:44:13.922Z,87.94
2022-10-30T08:45:14.118Z,89.05
2022-10-30T08:46:12.560Z,89.15
2022-10-30T08:47:14.744Z,89.45
2022-10-30T08:48:14.065Z,88.75
2022-10-30T08:49:15.235Z,89.05
2022-10-30T08:50:13.696Z,89.25
2022-10-30T08:51:13.919Z,88.90
2022-10-30T08:52:16.110Z,88.81
2022-10-30T08:53:14.420Z,88.10
2022-10-30T08:54:16.603Z,89.21
2022-10-30T08:55:14.917Z,88.50
2022-10-30T08:56:15.167Z,89.01
2022-10-30T08:57:17.318Z,89.71
2022-10-30T08:58:15.635Z,88.90
2022-10-30T08:59:21.124Z,89.01
2022-10-30T09:00:16.111Z,88.86
2022-10-30T09:01:16.442Z,88.16
2022-10-30T09:02:18.182Z,89.81
2022-10-30T09:03:16.880Z,89.21
2022-10-30T09:04:19.068Z,89.61
2022-10-30T09:05:17.388Z,89.57
2022-10-30T09:06:17.629Z,89.32
2022-10-30T09:07:19.778Z,89.06
2022-10-30T09:08:19.944Z,88.72
2022-10-30T09:09:20.128Z,87.92
2022-10-30T09:10:18.701Z,87.92
2022-10-30T09:11:18.932Z,87.98
2022-10-30T09:12:21.120Z,88.34
2022-10-30T09:13:19.430Z,86.43
2022-10-30T09:14:21.626Z,87.07
2022-10-30T09:15:19.941Z,87.62
2022-10-30T09:16:23.094Z,88.38
2022-10-30T09:17:22.327Z,87.73
2022-10-30T09:18:22.521Z,86.52
2022-10-30T09:19:21.075Z,87.13
2022-10-30T09:20:23.256Z,86.58
2022-10-30T09:21:24.947Z,86.88
2022-10-30T09:22:21.909Z,86.83
2022-10-30T09:23:24.084Z,87.29
2022-10-30T09:24:22.534Z,86.38
2022-10-30T09:25:22.621Z,86.38
2022-10-30T09:26:23.844Z,86.72
2022-10-30T09:27:24.124Z,86.83
2022-10-30T09:28:25.313Z,86.58
2022-10-30T09:29:23.739Z,87.23
2022-10-30T09:30:24.108Z,86.99
2022-10-30T09:31:25.675Z,86.28
2022-10-30T09:32:24.470Z,86.58
2022-10-30T09:33:26.657Z,85.60
2022-10-30T09:34:25.012Z,85.70
2022-10-30T09:35:25.281Z,85.39
2022-10-30T09:36:29.005Z,84.99
2022-10-30T09:37:25.828Z,84.45
2022-10-30T09:38:26.072Z,84.74
2022-10-30T09:39:28.255Z,86.20
2022-10-30T09:40:28.444Z,84.31
2022-10-30T09:41:27.745Z,84.35
2022-10-30T09:42:27.178Z,84.41
2022-10-30T09:43:29.351Z,82.97
2022-10-30T09:44:29.537Z,82.26
2022-10-30T09:45:29.742Z,82.23
2022-10-30T09:46:30.629Z,82.37
2022-10-30T09:47:28.578Z,83.13
2022-10-30T09:48:30.759Z,82.97
2022-10-30T09:49:31.143Z,83.81
2022-10-30T09:50:32.255Z,82.37
2022-10-30T09:51:33.803Z,81.62
2022-10-30T09:52:31.672Z,81.68
2022-10-30T09:53:31.749Z,81.99
2022-10-30T09:54:32.449Z,80.38
2022-10-30T09:55:32.609Z,82.97
2022-10-30T09:56:32.880Z,81.93
2022-10-30T09:57:32.997Z,82.26
2022-10-30T09:58:33.202Z,82.26
2022-10-30T09:59:33.860Z,82.03
2022-10-30T10:00:32.154Z,81.93
2022-10-30T10:01:35.922Z,80.38
2022-10-30T10:02:32.810Z,81.38
2022-10-30T10:03:32.914Z,82.03
2022-10-30T10:04:35.119Z,80.28
2022-10-30T10:05:34.482Z,80.28
2022-10-30T10:06:35.638Z,82.26
2022-10-30T10:07:34.083Z,81.68
2022-10-30T10:08:36.259Z,80.24
2022-10-30T10:09:34.635Z,79.30
2022-10-30T10:10:35.714Z,80.00
2022-10-30T10:11:36.129Z,78.06
2022-10-30T10:12:35.450Z,77.43
2022-10-30T10:13:37.625Z,76.63
2022-10-30T10:14:35.945Z,76.99
2022-10-30T10:15:37.164Z,76.49
2022-10-30T10:16:36.471Z,77.03
2022-10-30T10:17:36.807Z,78.36
2022-10-30T10:18:38.906Z,78.80
2022-10-30T10:19:39.099Z,80.24
2022-10-30T10:20:38.473Z,80.28
2022-10-30T10:21:39.488Z,80.79
2022-10-30T10:22:40.179Z,80.82
2022-10-30T10:23:40.379Z,81.52
2022-10-30T10:24:38.794Z,81.96
2022-10-30T10:25:42.454Z,82.76
2022-10-30T10:26:39.275Z,83.31
2022-10-30T10:27:41.435Z,83.81
2022-10-30T10:28:41.642Z,83.37
2022-10-30T10:29:40.089Z,82.53
2022-10-30T10:30:43.713Z,82.12
2022-10-30T10:31:41.560Z,82.17
2022-10-30T10:32:44.210Z,81.48
2022-10-30T10:33:42.930Z,80.68
2022-10-30T10:34:43.117Z,81.88
2022-10-30T10:35:44.256Z,79.91
2022-10-30T10:36:42.050Z,79.06
2022-10-30T10:37:44.258Z,79.67
2022-10-30T10:38:44.468Z,78.73
2022-10-30T10:39:44.619Z,79.03
2022-10-30T10:40:45.451Z,77.73
2022-10-30T10:41:43.510Z,77.23
2022-10-30T10:42:43.873Z,78.47
2022-10-30T10:43:44.120Z,79.41
2022-10-30T10:44:46.312Z,79.47
2022-10-30T10:45:45.418Z,79.78
2022-10-30T10:46:46.364Z,81.09
2022-10-30T10:47:46.618Z,82.53
2022-10-30T10:48:45.421Z,82.03
2022-10-30T10:49:45.677Z,82.12
2022-10-30T10:50:48.900Z,82.15
2022-10-30T10:51:48.181Z,79.67
2022-10-30T10:52:46.512Z,78.47
2022-10-30T10:53:46.766Z,78.67
2022-10-30T10:54:48.951Z,79.23
2022-10-30T10:55:48.289Z,77.33
2022-10-30T10:56:49.463Z,77.66
2022-10-30T10:57:49.644Z,76.34
2022-10-30T10:58:48.216Z,73.69
2022-10-30T10:59:51.372Z,76.95
2022-10-30T11:00:49.600Z,76.02
2022-10-30T11:01:49.109Z,75.82
2022-10-30T11:02:49.394Z,76.45
2022-10-30T11:03:52.503Z,76.86
2022-10-30T11:04:50.757Z,78.60
2022-10-30T11:05:51.422Z,80.48
2022-10-30T11:06:50.355Z,81.65
2022-10-30T11:07:50.955Z,81.62
2022-10-30T11:08:52.449Z,82.49
2022-10-30T11:09:52.067Z,81.38
2022-10-30T11:10:52.391Z,81.11
2022-10-30T11:11:54.491Z,79.86
2022-10-30T11:12:51.938Z,80.57
2022-10-30T11:13:54.122Z,79.57
2022-10-30T11:14:54.389Z,78.33
2022-10-30T11:15:52.697Z,77.95
2022-10-30T11:16:53.915Z,78.10
2022-10-30T11:17:55.147Z,80.18
2022-10-30T11:18:55.315Z,81.99
2022-10-30T11:19:54.722Z,81.35
2022-10-30T11:20:54.036Z,80.54
2022-10-30T11:21:54.277Z,80.21
2022-10-30T11:22:54.572Z,78.29
2022-10-30T11:23:56.714Z,76.52
2022-10-30T11:24:56.170Z,75.89
2022-10-30T11:25:57.487Z,75.62
2022-10-30T11:26:55.793Z,75.98
2022-10-30T11:27:56.038Z,75.96
2022-10-30T11:28:58.223Z,76.06
2022-10-30T11:29:57.584Z,77.43
2022-10-30T11:30:56.967Z,76.26
2022-10-30T11:31:57.206Z,76.49
2022-10-30T11:32:58.516Z,76.99
2022-10-30T11:33:59.634Z,77.60
2022-10-30T11:35:02.363Z,80.24
2022-10-30T11:35:58.646Z,79.91
2022-10-30T11:36:58.735Z,80.48
2022-10-30T11:38:00.918Z,80.68
2022-10-30T11:38:59.239Z,80.94
2022-10-30T11:40:02.897Z,81.23
2022-10-30T11:41:01.628Z,81.55
2022-10-30T11:42:00.504Z,78.53
2022-10-30T11:43:00.692Z,77.29
2022-10-30T11:44:00.605Z,77.63
2022-10-30T11:45:03.812Z,80.11
2022-10-30T11:46:02.996Z,79.09
2022-10-30T11:47:03.410Z,75.96
2022-10-30T11:48:05.195Z,75.96
2022-10-30T11:49:04.083Z,75.96
2022-10-30T11:50:03.336Z,75.72
2022-10-30T11:51:02.772Z,76.69
2022-10-30T11:52:02.910Z,76.62
2022-10-30T11:53:05.082Z,75.02
2022-10-30T11:54:05.264Z,76.06
2022-10-30T11:55:06.399Z,76.35
2022-10-30T11:56:03.960Z,76.02
2022-10-30T11:57:04.209Z,75.02
2022-10-30T11:58:06.400Z,75.16
2022-10-30T11:59:06.593Z,77.25
2022-10-30T12:00:06.075Z,75.42
2022-10-30T12:01:06.805Z,76.42
2022-10-30T12:02:07.724Z,74.45
2022-10-30T12:03:07.687Z,74.51
2022-10-30T12:04:07.860Z,74.92
2022-10-30T12:05:08.292Z,74.19
2022-10-30T12:06:08.303Z,73.88
2022-10-30T12:07:08.993Z,74.29
2022-10-30T12:08:09.209Z,75.99
2022-10-30T12:09:09.386Z,77.30
2022-10-30T12:10:09.620Z,77.13
2022-10-30T12:11:09.782Z,76.43
2022-10-30T12:12:10.477Z,77.53
2022-10-30T12:13:10.677Z,76.52
2022-10-30T12:14:10.869Z,74.76
2022-10-30T12:15:12.089Z,79.00
2022-10-30T12:16:11.284Z,78.60
2022-10-30T12:17:11.984Z,79.27
2022-10-30T12:18:12.159Z,77.36
2022-10-30T12:19:12.373Z,78.29
2022-10-30T12:20:13.550Z,76.12
2022-10-30T12:21:11.242Z,73.99
2022-10-30T12:22:11.481Z,75.26
2022-10-30T12:23:11.722Z,76.26
2022-10-30T12:24:13.908Z,77.13
2022-10-30T12:25:15.125Z,76.59
2022-10-30T12:26:14.358Z,76.35
2022-10-30T12:27:19.619Z,74.68
2022-10-30T12:28:14.122Z,74.85
2022-10-30T12:29:16.766Z,73.18
2022-10-30T12:30:14.724Z,71.95
2022-10-30T12:31:16.041Z,72.85
2022-10-30T12:32:16.162Z,75.12
2022-10-30T12:33:16.334Z,74.98
2022-10-30T12:34:15.005Z,73.85
2022-10-30T12:35:17.078Z,73.88
2022-10-30T12:36:18.774Z,75.49
2022-10-30T12:37:17.481Z,76.33
2022-10-30T12:38:18.165Z,76.45
2022-10-30T12:39:18.374Z,76.73
2022-10-30T12:40:16.880Z,76.93
2022-10-30T12:41:19.997Z,78.30
2022-10-30T12:42:19.231Z,77.91
2022-10-30T12:43:19.443Z,79.68
2022-10-30T12:44:20.138Z,79.98
2022-10-30T12:45:20.328Z,80.04
2022-10-30T12:46:19.318Z,79.85
2022-10-30T12:47:20.528Z,78.70
2022-10-30T12:48:21.196Z,79.50
2022-10-30T12:49:21.420Z,77.76
2022-10-30T12:50:21.599Z,77.29
2022-10-30T12:51:24.046Z,75.72
2022-10-30T12:52:21.958Z,74.49
2022-10-30T12:53:20.784Z,75.39
2022-10-30T12:54:21.017Z,76.13
2022-10-30T12:55:21.261Z,78.00
2022-10-30T12:56:21.502Z,79.98
2022-10-30T12:57:23.808Z,80.79
2022-10-30T12:58:22.914Z,80.21